Time;durP1;ratioP1;P1;durP2;ratioP2;P2;SDS_P1;SDS_P2;PMS_P1;PMS_P2;Temp;Humidity;BMP_temperature;BMP_pressure;BME280_temperature;BME280_humidity;BME280_pressure;Samples;Min_cycle;Max_cycle;Signal;HPM_P1;HPM_P2
2023/05/25 00:02:15;;;;;;;19.70;11.30;;;;;;;10.28;100.00;102426.28;4956716;29;20479;-46
2023/05/25 00:04:47;;;;;;;15.63;9.40;;;;;;;10.25;100.00;102431.94;4956271;28;20566;-43
2023/05/25 00:07:15;;;;;;;18.30;11.17;;;;;;;10.15;100.00;102441.84;4957098;29;20435;-43
2023/05/25 00:09:45;;;;;;;15.67;10.90;;;;;;;10.13;100.00;102446.47;4957112;29;20869;-45
2023/05/25 00:12:15;;;;;;;23.73;10.73;;;;;;;10.04;100.00;102450.03;4956803;29;20436;-43
2023/05/25 00:14:42;;;;;;;19.07;10.60;;;;;;;10.11;100.00;102444.94;4956405;28;20547;-45
2023/05/25 00:17:10;;;;;;;17.17;10.97;;;;;;;10.06;100.00;102449.88;4956442;29;20526;-46
2023/05/25 00:19:41;;;;;;;14.90;9.97;;;;;;;10.03;100.00;102449.19;4956779;29;20486;-43
2023/05/25 00:22:09;;;;;;;15.63;10.43;;;;;;;10.00;100.00;102456.66;4956418;29;20451;-43
2023/05/25 00:24:37;;;;;;;20.63;10.70;;;;;;;10.00;100.00;102449.47;4956249;28;20542;-43
2023/05/25 00:27:06;;;;;;;14.57;11.07;;;;;;;9.97;100.00;102454.31;4948671;29;20436;-44
2023/05/25 00:29:35;;;;;;;14.20;9.47;;;;;;;9.85;100.00;102459.00;4956428;29;20435;-44
2023/05/25 00:32:03;;;;;;;15.53;12.10;;;;;;;9.88;100.00;102460.53;4956540;29;20858;-43
2023/05/25 00:34:31;;;;;;;17.77;12.17;;;;;;;9.86;100.00;102458.00;4946410;28;20554;-44
2023/05/25 00:37:00;;;;;;;23.47;11.90;;;;;;;9.81;100.00;102459.44;4956428;29;20467;-43
2023/05/25 00:39:28;;;;;;;15.77;10.50;;;;;;;9.83;100.00;102457.47;4956240;28;20494;-43
2023/05/25 00:41:57;;;;;;;16.40;11.40;;;;;;;9.80;100.00;102455.94;4956094;29;20471;-43
2023/05/25 00:44:24;;;;;;;21.27;12.50;;;;;;;9.81;100.00;102462.94;4955645;28;20475;-43
2023/05/25 00:46:53;;;;;;;30.80;13.87;;;;;;;9.82;100.00;102456.66;4956356;29;20487;-48
2023/05/25 00:49:22;;;;;;;18.33;11.70;;;;;;;9.78;100.00;102465.91;4956509;29;20979;-46
2023/05/25 00:51:52;;;;;;;21.70;10.17;;;;;;;9.78;100.00;102465.91;4956153;29;20448;-45
2023/05/25 00:54:21;;;;;;;11.90;10.47;;;;;;;9.76;100.00;102467.91;4955634;28;20523;-43
2023/05/25 00:56:53;;;;;;;20.13;12.90;;;;;;;9.73;100.00;102462.88;4955969;29;20436;-46
2023/05/25 00:59:29;;;;;;;21.03;11.87;;;;;;;9.67;100.00;102466.13;4956227;29;20487;-43
2023/05/25 01:02:02;;;;;;;19.63;11.00;;;;;;;9.61;100.00;102464.06;4956093;29;20467;-43
2023/05/25 01:04:32;;;;;;;17.33;10.63;;;;;;;9.56;100.00;102471.63;4953298;28;20483;-44
2023/05/25 01:07:02;;;;;;;21.27;12.30;;;;;;;9.58;100.00;102469.69;4955868;29;20428;-43
2023/05/25 01:09:34;;;;;;;16.63;10.63;;;;;;;9.56;100.00;102471.63;4955913;29;20499;-43
2023/05/25 01:12:02;;;;;;;20.90;11.80;;;;;;;9.59;100.00;102478.50;4955804;29;20527;-48
2023/05/25 01:14:31;;;;;;;22.73;11.00;;;;;;;9.62;100.00;102475.53;4955485;28;20906;-44
2023/05/25 01:16:59;;;;;;;17.10;11.70;;;;;;;9.59;100.00;102487.31;4955750;29;20439;-44
2023/05/25 01:19:27;;;;;;;12.50;10.80;;;;;;;9.63;100.00;102486.03;4955571;29;20475;-45
2023/05/25 01:22:03;;;;;;;14.90;11.20;;;;;;;9.63;100.00;102488.72;4955426;29;20891;-43
2023/05/25 01:24:39;;;;;;;16.93;10.10;;;;;;;9.59;100.00;102483.84;4955237;28;20503;-43
2023/05/25 01:27:14;;;;;;;16.70;10.60;;;;;;;9.54;100.00;102483.44;4947936;29;20843;-45
2023/05/25 01:29:44;;;;;;;11.77;9.30;;;;;;;9.49;100.00;102486.53;4955468;28;20808;-43
2023/05/25 01:32:13;;;;;;;21.20;10.37;;;;;;;9.54;100.00;102494.94;4955164;29;20513;-43
2023/05/25 01:34:43;;;;;;;19.93;11.13;;;;;;;9.57;100.00;102496.44;4951287;28;21044;-43
2023/05/25 01:37:13;;;;;;;19.27;10.17;;;;;;;9.59;100.00;102497.16;4955369;29;20538;-43
2023/05/25 01:39:41;;;;;;;16.53;10.87;;;;;;;9.59;100.00;102483.84;4955444;29;20444;-42
2023/05/25 01:42:08;;;;;;;12.67;11.37;;;;;;;9.58;100.00;102490.16;4955015;29;20443;-43
2023/05/25 01:44:38;;;;;;;15.90;9.93;;;;;;;9.56;100.00;102489.47;4954544;28;20651;-43
2023/05/25 01:47:10;;;;;;;16.23;10.87;;;;;;;9.47;100.00;102493.00;4955398;29;20848;-43
2023/05/25 01:49:46;;;;;;;13.07;10.80;;;;;;;9.50;100.00;102482.06;4955387;29;20834;-43
2023/05/25 01:52:22;;;;;;;20.60;10.73;;;;;;;9.46;100.00;102484.19;4954640;29;20494;-43
2023/05/25 01:54:53;;;;;;;11.00;9.07;;;;;;;9.41;100.00;102481.09;4954698;28;20972;-43
2023/05/25 01:57:22;;;;;;;29.50;11.13;;;;;;;9.41;100.00;102481.94;4954925;29;20432;-43
2023/05/25 01:59:52;;;;;;;18.23;11.33;;;;;;;9.33;100.00;102481.84;4954861;29;20439;-45
2023/05/25 02:02:20;;;;;;;18.50;10.83;;;;;;;9.36;100.00;102478.88;4954635;29;20467;-45
2023/05/25 02:04:49;;;;;;;19.23;12.73;;;;;;;9.36;100.00;102492.19;4954254;28;20507;-42
2023/05/25 02:07:18;;;;;;;19.30;10.83;;;;;;;9.32;100.00;102498.78;4954647;29;20486;-44
2023/05/25 02:09:46;;;;;;;13.50;10.40;;;;;;;9.32;100.00;102498.78;4954635;29;21188;-46
2023/05/25 02:12:14;;;;;;;17.90;10.90;;;;;;;9.24;100.00;102500.50;4954687;29;20432;-46
2023/05/25 02:14:42;;;;;;;15.00;10.50;;;;;;;9.27;100.00;102497.56;4954309;28;20487;-43
2023/05/25 02:17:11;;;;;;;19.00;11.20;;;;;;;9.26;100.00;102501.19;4954743;29;20879;-44
2023/05/25 02:19:39;;;;;;;13.23;10.60;;;;;;;9.30;100.00;102500.78;4954480;29;20436;-45
2023/05/25 02:22:07;;;;;;;19.07;11.07;;;;;;;9.33;100.00;102496.97;4954206;29;20436;-44
2023/05/25 02:24:36;;;;;;;15.17;10.23;;;;;;;9.32;100.00;102498.78;4953819;28;21044;-42
2023/05/25 02:27:05;;;;;;;13.37;9.43;;;;;;;9.34;100.00;102502.16;4946797;29;20436;-45
2023/05/25 02:29:32;;;;;;;16.93;9.93;;;;;;;9.29;100.00;102499.09;4954386;29;20776;-44
2023/05/25 02:32:00;;;;;;;18.83;10.27;;;;;;;9.30;100.00;102503.44;4954394;29;20535;-43
2023/05/25 02:34:28;;;;;;;15.70;10.77;;;;;;;9.30;100.00;102502.59;4953736;28;20471;-43
2023/05/25 02:36:56;;;;;;;17.80;10.67;;;;;;;9.27;100.00;102502.88;4953339;29;20969;-45
2023/05/25 02:39:26;;;;;;;16.73;11.10;;;;;;;9.25;100.00;102504.84;4953753;29;20447;-43
2023/05/25 02:41:55;;;;;;;18.97;11.50;;;;;;;9.28;100.00;102502.75;4953767;29;20487;-42
2023/05/25 02:44:23;;;;;;;19.93;11.03;;;;;;;9.27;100.00;102500.22;4953793;28;20487;-43
2023/05/25 02:46:50;;;;;;;17.97;10.10;;;;;;;9.25;100.00;102508.38;4954702;28;20472;-42
2023/05/25 02:49:18;;;;;;;13.77;10.90;;;;;;;9.26;100.00;102511.84;4954068;29;20431;-43
2023/05/25 02:51:46;;;;;;;16.27;11.23;;;;;;;9.26;100.00;102507.34;4954057;29;20436;-43
2023/05/25 02:54:14;;;;;;;23.67;11.57;;;;;;;9.30;100.00;102510.56;4953757;28;20457;-42
2023/05/25 02:56:42;;;;;;;17.20;10.57;;;;;;;9.29;100.00;102509.72;4954143;28;20459;-42
2023/05/25 02:59:11;;;;;;;21.13;10.77;;;;;;;9.27;100.00;102511.72;4954009;29;20438;-44
2023/05/25 03:01:39;;;;;;;18.73;10.63;;;;;;;9.30;100.00;102506.09;4953644;28;20463;-42
2023/05/25 03:04:07;;;;;;;18.97;10.43;;;;;;;9.30;100.00;102510.56;4953384;28;20468;-44
2023/05/25 03:06:35;;;;;;;24.03;10.70;;;;;;;9.28;100.00;102513.41;4953860;29;20475;-42
2023/05/25 03:09:03;;;;;;;17.70;10.50;;;;;;;9.28;100.00;102521.38;4953811;29;20491;-45
2023/05/25 03:11:31;;;;;;;21.70;11.27;;;;;;;9.29;100.00;102516.88;4953670;29;20435;-45
2023/05/25 03:13:59;;;;;;;18.60;10.40;;;;;;;9.34;100.00;102515.47;4953282;28;20473;-44
2023/05/25 03:16:28;;;;;;;16.50;9.83;;;;;;;9.38;100.00;102519.50;4953957;29;20522;-42
2023/05/25 03:18:56;;;;;;;15.37;10.57;;;;;;;9.36;100.00;102521.50;4953923;29;20519;-43
2023/05/25 03:21:24;;;;;;;27.90;12.17;;;;;;;9.40;100.00;102524.72;4953570;29;20424;-42
2023/05/25 03:23:51;;;;;;;15.53;10.03;;;;;;;9.42;100.00;102528.06;4953764;29;20888;-43
2023/05/25 03:26:19;;;;;;;14.60;10.40;;;;;;;9.47;100.00;102531.09;4950485;29;20504;-43
2023/05/25 03:28:47;;;;;;;18.83;10.30;;;;;;;9.52;100.00;102522.69;4948956;29;20855;-42
2023/05/25 03:31:14;;;;;;;21.27;11.70;;;;;;;9.59;100.00;102523.81;4953913;29;20439;-42
2023/05/25 03:33:43;;;;;;;24.30;11.30;;;;;;;9.63;100.00;102517.16;4953600;29;20461;-45
2023/05/25 03:36:12;;;;;;;18.27;11.13;;;;;;;9.57;100.00;102526.59;4952679;28;20467;-44
2023/05/25 03:38:40;;;;;;;18.40;10.20;;;;;;;9.58;100.00;102520.28;4953615;29;20867;-43
2023/05/25 03:41:07;;;;;;;18.93;11.60;;;;;;;9.65;100.00;102523.19;4953631;29;20450;-45
2023/05/25 03:43:35;;;;;;;16.30;11.97;;;;;;;9.71;100.00;102511.94;4953423;29;20539;-43
2023/05/25 03:46:03;;;;;;;28.30;10.60;;;;;;;9.81;100.00;102518.91;4951609;28;20570;-42
2023/05/25 03:48:31;;;;;;;19.33;10.40;;;;;;;9.83;100.00;102516.91;4952378;29;20457;-43
2023/05/25 03:51:00;;;;;;;28.07;11.90;;;;;;;9.97;100.00;102526.25;4953527;29;20443;-42
2023/05/25 03:53:28;;;;;;;26.43;10.90;;;;;;;10.04;100.00;102524.66;4953175;29;20458;-43
2023/05/25 03:55:56;;;;;;;26.53;12.97;;;;;;;10.10;100.00;102513.41;4952902;28;20456;-42
2023/05/25 03:58:23;;;;;;;23.60;11.90;;;;;;;10.11;100.00;102511.56;4953468;29;20431;-47
2023/05/25 04:00:51;;;;;;;26.70;10.43;;;;;;;10.09;100.00;102514.41;4953485;29;20431;-44
2023/05/25 04:03:19;;;;;;;24.20;11.47;;;;;;;10.14;100.00;102511.31;4952998;29;20474;-42
2023/05/25 04:05:47;;;;;;;29.70;12.07;;;;;;;10.24;100.00;102514.75;4952907;28;20471;-45
2023/05/25 04:08:17;;;;;;;18.67;10.50;;;;;;;10.23;100.00;102511.25;4953249;29;20435;-43
2023/05/25 04:10:45;;;;;;;16.90;11.00;;;;;;;10.28;100.00;102516.94;4953438;29;20645;-45
2023/05/25 04:13:13;;;;;;;23.03;11.10;;;;;;;10.31;100.00;102513.13;4953161;28;20781;-47
2023/05/25 04:15:41;;;;;;;16.73;11.40;;;;;;;10.40;100.00;102522.88;4956609;28;20526;-48
2023/05/25 04:18:09;;;;;;;20.83;9.70;;;;;;;10.45;100.00;102520.63;4956845;29;20458;-42
2023/05/25 04:20:37;;;;;;;22.13;11.97;;;;;;;10.59;100.00;102528.09;4956767;29;20526;-42
2023/05/25 04:23:05;;;;;;;19.40;10.53;;;;;;;11.12;100.00;102525.31;4956294;29;20934;-43
2023/05/25 04:25:34;;;;;;;18.83;10.77;;;;;;;12.02;100.00;102524.78;4956229;28;20498;-43
2023/05/25 04:28:01;;;;;;;17.90;11.80;;;;;;;12.79;100.00;102513.69;4948677;29;20440;-43
2023/05/25 04:30:30;;;;;;;18.07;10.00;;;;;;;13.41;100.00;102506.72;4956589;29;20428;-43
2023/05/25 04:33:01;;;;;;;18.63;8.90;;;;;;;13.76;100.00;102492.03;4956469;29;20997;-43
2023/05/25 04:35:30;;;;;;;18.00;9.70;;;;;;;14.18;100.00;102489.78;4956007;28;20475;-42
2023/05/25 04:37:59;;;;;;;18.53;9.90;;;;;;;14.54;100.00;102495.44;4956772;29;20524;-43
2023/05/25 04:40:27;;;;;;;13.37;8.10;;;;;;;15.12;100.00;102491.19;4956606;29;20470;-43
2023/05/25 04:42:56;;;;;;;15.20;8.73;;;;;;;15.36;100.00;102491.75;4956427;29;20471;-44
2023/05/25 04:45:23;;;;;;;18.17;10.47;;;;;;;15.41;100.00;102493.91;4956127;28;20887;-44
2023/05/25 04:47:51;;;;;;;16.73;9.30;;;;;;;15.77;100.00;102500.19;4956199;29;20471;-42
2023/05/25 04:50:19;;;;;;;21.77;10.33;;;;;;;15.84;100.00;102493.03;4956660;29;20439;-43
2023/05/25 04:52:47;;;;;;;18.13;8.70;;;;;;;16.24;100.00;102501.56;4956341;29;20435;-43
2023/05/25 04:55:15;;;;;;;17.90;9.57;;;;;;;16.44;100.00;102497.19;4955837;28;20534;-43
2023/05/25 04:57:43;;;;;;;23.37;10.33;;;;;;;16.92;100.00;102495.56;4956106;29;20937;-46
2023/05/25 05:00:14;;;;;;;13.27;9.20;;;;;;;17.21;100.00;102503.44;4956165;29;20536;-44
2023/05/25 05:02:42;;;;;;;20.37;9.57;;;;;;;17.09;100.00;102496.94;4955739;29;20432;-44
2023/05/25 05:05:10;;;;;;;15.33;8.43;;;;;;;17.21;100.00;102492.66;4955364;28;20468;-43
2023/05/25 05:07:38;;;;;;;21.17;8.97;;;;;;;17.43;100.00;102493.41;4955971;29;20470;-43
2023/05/25 05:10:07;;;;;;;14.13;8.27;;;;;;;17.04;100.00;102502.94;4955935;29;20538;-43
2023/05/25 05:12:34;;;;;;;16.43;9.23;;;;;;;16.79;100.00;102500.84;4955574;29;20435;-48
2023/05/25 05:15:02;;;;;;;17.57;8.63;;;;;;;16.60;100.00;102505.06;4955208;28;20502;-43
2023/05/25 05:17:31;;;;;;;20.23;8.93;;;;;;;16.11;100.00;102498.72;4955766;29;20455;-49
2023/05/25 05:19:59;;;;;;;19.80;8.93;;;;;;;16.61;100.00;102497.81;4955924;29;20441;-46
2023/05/25 05:22:27;;;;;;;28.03;10.90;;;;;;;17.04;100.00;102500.22;4955420;29;20463;-43
2023/05/25 05:24:55;;;;;;;21.07;9.10;;;;;;;17.27;100.00;102513.44;4954631;28;20475;-43
2023/05/25 05:27:22;;;;;;;23.30;9.00;;;;;;;17.00;98.56;102508.88;4947342;28;20471;-43
2023/05/25 05:29:50;;;;;;;20.90;8.93;;;;;;;17.29;96.75;102513.25;4955366;29;20842;-43
2023/05/25 05:32:18;;;;;;;24.53;9.30;;;;;;;17.20;98.13;102512.59;4955631;29;20512;-45
2023/05/25 05:34:47;;;;;;;18.67;9.73;;;;;;;17.01;98.91;102506.00;4953762;28;20467;-43
2023/05/25 05:37:15;;;;;;;16.53;8.37;;;;;;;17.33;93.66;102512.66;4955395;29;20967;-41
2023/05/25 05:39:42;;;;;;;18.13;9.67;;;;;;;17.54;93.81;102509.03;4955281;29;20533;-42
2023/05/25 05:42:10;;;;;;;22.00;11.10;;;;;;;17.47;91.51;102516.28;4955062;29;20443;-42
2023/05/25 05:44:38;;;;;;;20.77;9.27;;;;;;;16.70;91.53;102516.31;4954803;28;20510;-43
2023/05/25 05:47:06;;;;;;;20.90;9.30;;;;;;;16.67;97.06;102522.09;4955360;29;20506;-42
2023/05/25 05:49:36;;;;;;;23.43;10.00;;;;;;;16.39;99.15;102505.88;4955257;29;20498;-42
2023/05/25 05:52:06;;;;;;;22.43;9.90;;;;;;;16.49;97.90;102524.38;4954918;29;20478;-44
2023/05/25 05:54:33;;;;;;;20.30;10.10;;;;;;;16.82;90.80;102520.16;4954475;28;20487;-43
2023/05/25 05:57:02;;;;;;;19.43;9.30;;;;;;;16.78;93.72;102526.13;4955182;29;20510;-43
2023/05/25 05:59:29;;;;;;;19.80;10.40;;;;;;;16.83;89.93;102524.53;4955051;29;20470;-44
2023/05/25 06:01:57;;;;;;;23.97;9.93;;;;;;;16.99;96.62;102528.81;4954772;29;20440;-44
2023/05/25 06:04:27;;;;;;;17.03;10.50;;;;;;;16.62;90.84;102519.16;4954383;28;20466;-49
2023/05/25 06:06:56;;;;;;;23.27;9.80;;;;;;;17.04;93.13;102529.03;4954783;29;20511;-43
2023/05/25 06:09:26;;;;;;;26.23;10.93;;;;;;;17.33;86.95;102528.84;4955206;28;20797;-42
2023/05/25 06:11:53;;;;;;;17.60;9.67;;;;;;;17.69;81.20;102531.34;4954869;28;20438;-45
2023/05/25 06:14:21;;;;;;;28.00;10.53;;;;;;;17.88;80.24;102532.47;4954425;28;20522;-47
2023/05/25 06:16:49;;;;;;;21.00;9.43;;;;;;;17.90;81.33;102530.41;4955048;29;20530;-43
2023/05/25 06:19:17;;;;;;;27.67;9.10;;;;;;;18.12;79.41;102526.56;4954501;29;20502;-45
2023/05/25 06:21:45;;;;;;;23.27;10.00;;;;;;;18.53;73.44;102538.09;4954104;29;21004;-45
2023/05/25 06:24:15;;;;;;;25.63;10.63;;;;;;;18.28;71.61;102544.25;4954193;28;21168;-45
2023/05/25 06:26:44;;;;;;;26.37;10.63;;;;;;;19.09;69.09;102546.63;4948387;29;20993;-43
2023/05/25 06:29:11;;;;;;;24.53;9.00;;;;;;;18.12;68.91;102548.16;4952891;29;20494;-43
2023/05/25 06:31:43;;;;;;;17.80;9.10;;;;;;;18.64;67.96;102542.06;4954252;29;20432;-43
2023/05/25 06:34:11;;;;;;;21.00;9.97;;;;;;;18.50;69.27;102554.72;4953815;28;20487;-43
2023/05/25 06:36:38;;;;;;;25.20;10.50;;;;;;;19.05;69.32;102545.41;4954257;28;20518;-45
2023/05/25 06:39:08;;;;;;;25.60;10.23;;;;;;;18.97;66.46;102552.88;4954365;29;20435;-45
2023/05/25 06:41:39;;;;;;;25.40;10.30;;;;;;;19.30;64.73;102546.41;4954437;29;20459;-43
2023/05/25 06:44:08;;;;;;;24.83;9.27;;;;;;;19.02;63.08;102545.00;4953794;28;20799;-46
2023/05/25 06:46:37;;;;;;;18.80;8.80;;;;;;;18.30;63.49;102547.56;4953961;29;20955;-44
2023/05/25 06:49:05;;;;;;;23.83;9.00;;;;;;;17.91;67.44;102551.81;4954236;29;20485;-43
2023/05/25 06:51:33;;;;;;;27.10;9.57;;;;;;;18.05;66.27;102539.19;4954140;29;20526;-43
2023/05/25 06:54:01;;;;;;;25.60;9.47;;;;;;;18.39;67.10;102546.34;4953702;28;20538;-43
2023/05/25 06:56:29;;;;;;;19.13;8.90;;;;;;;18.51;65.75;102532.06;4954050;29;20443;-43
2023/05/25 06:58:56;;;;;;;18.90;8.97;;;;;;;19.02;64.31;102545.00;4953982;28;20432;-42
2023/05/25 07:01:25;;;;;;;21.60;8.17;;;;;;;19.10;61.98;102550.19;4953668;29;20486;-43
2023/05/25 07:03:53;;;;;;;22.50;9.30;;;;;;;18.83;63.52;102543.09;4953887;29;20467;-44
2023/05/25 07:06:21;;;;;;;21.30;8.80;;;;;;;19.13;61.84;102545.19;4953327;29;20459;-44
2023/05/25 07:08:49;;;;;;;23.13;9.27;;;;;;;19.39;62.64;102546.19;4953700;29;20517;-42
2023/05/25 07:11:19;;;;;;;23.97;9.07;;;;;;;19.86;59.63;102552.13;4953659;29;20454;-43
2023/05/25 07:13:47;;;;;;;19.17;8.93;;;;;;;19.46;58.91;102558.69;4953470;29;20885;-42
2023/05/25 07:16:15;;;;;;;26.50;9.40;;;;;;;19.35;58.61;102562.84;4953258;28;20993;-49
2023/05/25 07:18:44;;;;;;;18.03;8.37;;;;;;;19.43;56.77;102555.59;4953709;29;21039;-47
2023/05/25 07:21:12;;;;;;;16.20;8.80;;;;;;;18.81;58.47;102562.25;4953667;29;20443;-48
2023/05/25 07:23:40;;;;;;;19.20;8.27;;;;;;;18.64;58.70;102578.00;4953639;29;20552;-42
2023/05/25 07:26:08;;;;;;;25.93;12.17;;;;;;;18.88;60.98;102573.88;4951796;28;20462;-43
2023/05/25 07:28:35;;;;;;;26.17;9.13;;;;;;;19.21;58.33;102573.88;4947698;29;20529;-42
2023/05/25 07:31:03;;;;;;;20.23;9.47;;;;;;;19.01;58.48;102570.34;4953723;29;20518;-44
2023/05/25 07:33:31;;;;;;;20.83;8.23;;;;;;;18.91;58.94;102580.75;4953413;29;20466;-42
2023/05/25 07:36:00;;;;;;;26.30;9.40;;;;;;;19.02;58.44;102572.03;4948804;28;20495;-43
2023/05/25 07:38:27;;;;;;;20.27;8.93;;;;;;;19.59;57.07;102577.59;4953530;29;20514;-42
2023/05/25 07:40:55;;;;;;;19.97;9.40;;;;;;;19.42;58.17;102583.66;4953364;29;20486;-43
2023/05/25 07:43:23;;;;;;;21.23;9.47;;;;;;;19.39;56.96;102581.34;4953354;29;20447;-44
2023/05/25 07:45:51;;;;;;;16.73;8.73;;;;;;;19.41;55.59;102593.69;4953271;28;20471;-42
2023/05/25 07:48:19;;;;;;;19.63;8.60;;;;;;;19.01;59.42;102578.47;4953538;28;20533;-43
2023/05/25 07:50:46;;;;;;;22.37;9.00;;;;;;;18.73;61.56;102579.47;4957203;29;20627;-43
2023/05/25 07:53:15;;;;;;;20.00;9.33;;;;;;;17.97;60.51;102583.41;4956926;29;20945;-47
2023/05/25 07:55:43;;;;;;;20.47;8.93;;;;;;;18.05;63.59;102591.31;4957034;28;20545;-43
2023/05/25 07:58:11;;;;;;;25.33;10.03;;;;;;;18.10;63.47;102591.53;4957328;29;20462;-42
2023/05/25 08:00:39;;;;;;;21.30;9.60;;;;;;;17.66;63.39;102600.03;4957234;29;21028;-42
2023/05/25 08:03:06;;;;;;;16.83;9.13;;;;;;;17.39;64.35;102594.63;4956803;29;20435;-42
2023/05/25 08:05:34;;;;;;;18.57;8.93;;;;;;;17.17;66.25;102593.84;4957005;28;20494;-43
2023/05/25 08:08:02;;;;;;;18.70;8.70;;;;;;;17.11;67.43;102598.13;4957446;29;20485;-46
2023/05/25 08:10:31;;;;;;;20.07;9.40;;;;;;;17.00;66.76;102601.38;4957525;29;20443;-42
2023/05/25 08:12:59;;;;;;;24.47;10.20;;;;;;;17.05;67.42;102592.72;4957206;29;20442;-45
2023/05/25 08:15:27;;;;;;;21.70;9.50;;;;;;;16.83;69.57;102609.91;4956619;28;20498;-46
2023/05/25 08:17:55;;;;;;;25.40;10.20;;;;;;;16.90;71.22;102603.56;4957076;29;20504;-41
2023/05/25 08:20:24;;;;;;;27.17;9.90;;;;;;;17.01;70.25;102607.59;4956857;29;20442;-45
2023/05/25 08:22:53;;;;;;;21.53;8.73;;;;;;;16.89;70.48;102607.28;4956905;29;20510;-45
2023/05/25 08:25:21;;;;;;;19.50;9.57;;;;;;;16.94;70.53;102618.31;4956397;28;20469;-45
2023/05/25 08:27:50;;;;;;;23.70;10.47;;;;;;;16.93;72.35;102616.66;4949013;29;20439;-44
2023/05/25 08:30:18;;;;;;;23.23;9.03;;;;;;;17.10;67.85;102611.81;4956698;29;21203;-42
2023/05/25 08:32:46;;;;;;;18.90;8.83;;;;;;;17.08;69.37;102620.09;4956421;29;20534;-44
2023/05/25 08:35:14;;;;;;;18.83;9.20;;;;;;;17.04;68.25;102618.00;4956161;28;20849;-42
2023/05/25 08:37:42;;;;;;;20.80;10.23;;;;;;;17.06;71.99;102608.69;4956851;29;20506;-42
2023/05/25 08:40:14;;;;;;;23.03;8.97;;;;;;;17.26;72.72;102613.41;4956691;29;20494;-42
2023/05/25 08:42:43;;;;;;;19.20;9.00;;;;;;;17.05;68.74;102615.09;4956274;29;20530;-43
2023/05/25 08:45:12;;;;;;;19.20;9.47;;;;;;;17.22;71.90;102621.06;4956051;28;20491;-44
2023/05/25 08:48:01;;;;;;;17.60;8.93;;;;;;;16.98;71.63;102621.47;4956231;29;20938;-43
2023/05/25 08:50:30;;;;;;;22.10;8.77;;;;;;;16.90;68.89;102624.28;4956633;28;20814;-43
2023/05/25 08:53:02;;;;;;;17.80;8.63;;;;;;;16.89;70.97;102611.84;4956291;29;20436;-42
2023/05/25 08:55:37;;;;;;;25.00;9.10;;;;;;;16.66;71.68;102622.81;4956211;28;20526;-43
2023/05/25 08:58:15;;;;;;;21.20;8.77;;;;;;;16.73;68.64;102636.31;4956349;29;20529;-44
2023/05/25 09:00:49;;;;;;;19.23;9.57;;;;;;;16.98;68.40;102645.72;4956364;28;20530;-42
2023/05/25 09:03:17;;;;;;;26.87;9.43;;;;;;;16.71;68.44;102639.22;4956075;29;20809;-42
2023/05/25 09:05:46;;;;;;;20.30;9.67;;;;;;;16.98;70.93;102641.16;4955917;28;20474;-42
2023/05/25 09:08:15;;;;;;;17.33;8.53;;;;;;;17.28;72.34;102641.84;4956203;29;20801;-42
2023/05/25 09:10:43;;;;;;;17.07;8.97;;;;;;;17.11;72.78;102635.06;4956185;29;20953;-42
2023/05/25 09:13:11;;;;;;;29.10;9.10;;;;;;;16.58;73.74;102637.22;4955856;29;20797;-42
2023/05/25 09:15:41;;;;;;;17.07;8.37;;;;;;;16.64;71.92;102635.63;4955816;28;20494;-42
2023/05/25 09:18:10;;;;;;;20.33;9.33;;;;;;;16.84;77.10;102639.38;4956014;29;20988;-42
2023/05/25 09:20:40;;;;;;;21.40;9.63;;;;;;;17.21;71.80;102640.09;4955744;29;20435;-44
2023/05/25 09:23:14;;;;;;;20.73;8.67;;;;;;;16.90;75.81;102644.00;4955835;29;20428;-44
2023/05/25 09:25:43;;;;;;;31.20;8.83;;;;;;;17.07;73.02;102637.31;4955421;28;20511;-43
2023/05/25 09:28:11;;;;;;;21.80;8.83;;;;;;;17.52;73.65;102632.50;4947887;29;20941;-42
2023/05/25 09:30:54;;;;;;;25.73;8.63;;;;;;;17.52;69.81;102638.72;4955821;29;20458;-43
2023/05/25 09:33:23;;;;;;;23.43;8.27;;;;;;;17.75;67.98;102637.66;4955184;29;20563;-47
2023/05/25 09:35:51;;;;;;;22.73;8.73;;;;;;;17.65;66.47;102632.63;4953710;28;20481;-42
2023/05/25 09:38:19;;;;;;;19.40;9.70;;;;;;;17.58;68.60;102637.13;4955465;28;20964;-43
2023/05/25 09:40:47;;;;;;;25.63;10.13;;;;;;;17.66;65.02;102645.91;4955556;29;20436;-42
2023/05/25 09:43:16;;;;;;;19.80;8.17;;;;;;;17.60;64.40;102633.19;4955257;29;20432;-43
2023/05/25 09:45:59;;;;;;;26.67;8.87;;;;;;;17.68;66.38;102638.44;4954714;28;20526;-47
2023/05/25 09:48:29;;;;;;;13.70;7.00;;;;;;;17.67;61.32;102636.78;4955145;29;20446;-46
2023/05/25 09:50:57;;;;;;;18.37;8.40;;;;;;;17.71;63.08;102647.19;4955288;29;20562;-47
2023/05/25 09:53:26;;;;;;;24.73;8.47;;;;;;;17.71;58.77;102644.50;4954984;29;20524;-48
2023/05/25 09:55:54;;;;;;;13.97;8.50;;;;;;;17.59;61.87;102649.59;4954662;28;20464;-44
2023/05/25 09:58:22;;;;;;;18.30;9.10;;;;;;;17.53;59.22;102640.38;4954952;29;20442;-42
2023/05/25 10:00:53;;;;;;;17.27;8.00;;;;;;;17.81;58.17;102642.25;4955412;28;20439;-42
2023/05/25 10:03:21;;;;;;;16.20;7.73;;;;;;;17.85;60.40;102638.13;4954741;29;20822;-44
2023/05/25 10:05:51;;;;;;;17.87;7.93;;;;;;;17.95;57.51;102644.03;4953480;28;20471;-46
2023/05/25 10:08:22;;;;;;;16.53;8.30;;;;;;;18.00;62.13;102650.50;4954933;29;20440;-42
2023/05/25 10:10:50;;;;;;;18.00;8.23;;;;;;;18.26;63.64;102644.38;4954578;28;20904;-42
2023/05/25 10:13:21;;;;;;;25.10;7.93;;;;;;;18.15;62.96;102635.00;4954450;29;20530;-42
2023/05/25 10:15:53;;;;;;;22.13;8.73;;;;;;;18.32;65.66;102653.53;4954707;28;20470;-41
2023/05/25 10:18:25;;;;;;;16.87;7.60;;;;;;;18.10;62.74;102650.09;4954765;29;20434;-44
2023/05/25 10:21:00;;;;;;;16.47;8.13;;;;;;;18.29;62.81;102646.66;4954790;29;20449;-46
2023/05/25 10:23:35;;;;;;;13.87;7.60;;;;;;;18.81;59.01;102637.09;4954400;29;20546;-43
2023/05/25 10:26:06;;;;;;;22.60;9.10;;;;;;;18.44;60.78;102647.34;4953457;28;21000;-42
2023/05/25 10:28:37;;;;;;;21.63;8.10;;;;;;;18.63;57.97;102640.38;4948539;29;20431;-42
2023/05/25 10:31:05;;;;;;;11.10;7.30;;;;;;;18.34;55.58;102646.88;4954385;29;20471;-44
2023/05/25 10:33:33;;;;;;;21.10;8.83;;;;;;;18.17;57.22;102651.81;4954144;29;21032;-45
2023/05/25 10:36:03;;;;;;;13.90;7.10;;;;;;;17.95;57.61;102652.94;4953798;28;20471;-47
2023/05/25 10:38:39;;;;;;;18.73;8.30;;;;;;;18.14;57.33;102638.72;4954343;29;20471;-43
2023/05/25 10:41:09;;;;;;;19.33;7.70;;;;;;;18.00;59.69;102641.56;4954378;29;20510;-47
2023/05/25 10:43:38;;;;;;;18.57;8.27;;;;;;;18.15;58.60;102642.25;4954265;28;20482;-43
2023/05/25 10:46:07;;;;;;;16.83;8.13;;;;;;;18.34;57.63;102648.78;4953764;28;20475;-45
2023/05/25 10:48:38;;;;;;;20.83;9.37;;;;;;;18.42;57.39;102646.72;4954365;29;20444;-46
2023/05/25 10:51:07;;;;;;;20.80;9.00;;;;;;;18.60;57.32;102641.63;4954346;28;20511;-46
2023/05/25 10:53:38;;;;;;;19.50;8.03;;;;;;;18.66;58.57;102646.22;4954118;29;20452;-45
2023/05/25 10:56:09;;;;;;;22.00;9.33;;;;;;;18.79;59.36;102648.94;4953671;28;20471;-43
2023/05/25 10:58:42;;;;;;;16.40;7.70;;;;;;;19.19;53.52;102633.59;4954095;29;20432;-41
2023/05/25 11:01:12;;;;;;;16.20;7.97;;;;;;;19.02;55.89;102636.94;4954104;29;20998;-43
2023/05/25 11:03:56;;;;;;;19.83;8.43;;;;;;;19.16;55.26;102639.44;4953741;29;20474;-43
2023/05/25 11:07:07;;;;;;;26.47;8.80;;;;;;;19.12;55.43;102642.75;4953535;29;20440;-44
2023/05/25 11:09:42;;;;;;;15.03;7.03;;;;;;;19.03;54.14;102638.56;4953937;29;20822;-43
2023/05/25 11:12:20;;;;;;;17.33;6.73;;;;;;;18.96;53.56;102638.59;4953902;29;20427;-43
2023/05/25 11:15:15;;;;;;;16.77;7.70;;;;;;;18.90;54.21;102636.72;4953587;28;20471;-48
2023/05/25 11:17:58;;;;;;;18.00;8.40;;;;;;;18.93;55.14;102639.00;4953752;29;20446;-43
2023/05/25 11:20:28;;;;;;;12.93;6.90;;;;;;;18.98;54.67;102633.78;4954033;29;20854;-43
2023/05/25 11:23:24;;;;;;;12.00;7.63;;;;;;;19.19;53.65;102627.38;4953051;28;20518;-43